createdAt,value
2016-11-09T00:00:19.829Z,0
2016-11-09T00:01:19.879Z,0
2016-11-09T00:02:19.953Z,0
2016-11-09T00:03:20.005Z,0
2016-11-09T00:04:20.052Z,0
2016-11-09T00:05:20.110Z,0
2016-11-09T00:06:20.181Z,0
2016-11-09T00:07:20.239Z,0
2016-11-09T00:08:20.275Z,0
2016-11-09T00:09:20.344Z,0
2016-11-09T00:10:20.406Z,0
2016-11-09T00:11:20.445Z,0
2016-11-09T00:12:20.806Z,0
2016-11-09T00:13:20.577Z,0
2016-11-09T00:14:20.613Z,0
2016-11-09T00:15:20.657Z,0
2016-11-09T00:16:20.731Z,0
2016-11-09T00:17:20.774Z,0
2016-11-09T00:18:20.828Z,0
2016-11-09T00:19:20.875Z,0
2016-11-09T00:20:20.965Z,0
2016-11-09T00:21:20.980Z,0
2016-11-09T00:22:21.067Z,0
2016-11-09T00:23:21.097Z,0
2016-11-09T00:24:21.160Z,0
2016-11-09T00:25:21.530Z,0
2016-11-09T00:26:21.258Z,0
2016-11-09T00:27:21.332Z,0
2016-11-09T00:28:21.374Z,0
2016-11-09T00:29:21.431Z,0
2016-11-09T00:30:21.486Z,0
2016-11-09T00:31:21.556Z,0
2016-11-09T00:32:21.592Z,0
2016-11-09T00:33:21.678Z,0
2016-11-09T00:34:21.704Z,0
2016-11-09T00:35:22.096Z,0
2016-11-09T00:36:22.150Z,0
2016-11-09T00:37:22.193Z,0
2016-11-09T00:38:21.949Z,0
2016-11-09T00:39:21.997Z,0
2016-11-09T00:40:22.048Z,0
2016-11-09T00:41:22.115Z,0
2016-11-09T00:42:22.161Z,0
2016-11-09T00:43:22.203Z,0
2016-11-09T00:44:22.262Z,0
2016-11-09T00:45:22.351Z,0
2016-11-09T00:46:22.399Z,0
2016-11-09T00:47:22.434Z,0
2016-11-09T00:48:22.494Z,0
2016-11-09T00:49:22.575Z,0
2016-11-09T00:50:22.606Z,0
2016-11-09T00:51:22.668Z,0
2016-11-09T00:52:22.736Z,0
2016-11-09T00:53:22.765Z,0
2016-11-09T00:54:22.834Z,0
2016-11-09T00:55:22.903Z,0
2016-11-09T00:56:22.937Z,0
2016-11-09T00:57:23.000Z,0
2016-11-09T00:58:23.041Z,0
2016-11-09T00:59:23.129Z,0
2016-11-09T01:00:23.155Z,0
2016-11-09T01:01:23.222Z,0
2016-11-09T01:02:23.290Z,0
2016-11-09T01:03:23.335Z,0
2016-11-09T01:04:23.387Z,0
2016-11-09T01:05:23.453Z,0
2016-11-09T01:06:23.513Z,0
2016-11-09T01:07:23.555Z,0
2016-11-09T01:08:23.598Z,0
2016-11-09T01:09:23.664Z,0
2016-11-09T01:10:23.713Z,0
2016-11-09T01:11:23.774Z,0
2016-11-09T01:12:23.834Z,0
2016-11-09T01:13:23.916Z,0
2016-11-09T01:14:23.958Z,0
2016-11-09T01:15:23.977Z,0
2016-11-09T01:16:24.059Z,0
2016-11-09T01:17:24.121Z,0
2016-11-09T01:18:24.158Z,0
2016-11-09T01:19:24.212Z,0
2016-11-09T01:20:24.256Z,0
2016-11-09T01:21:24.317Z,0
2016-11-09T01:22:24.540Z,0
2016-11-09T01:23:24.440Z,0
2016-11-09T01:24:24.493Z,0
2016-11-09T01:25:24.554Z,0
2016-11-09T01:26:24.604Z,0
2016-11-09T01:27:24.662Z,0
2016-11-09T01:28:24.724Z,0
2016-11-09T01:29:24.786Z,0
2016-11-09T01:30:24.828Z,0
2016-11-09T01:31:24.890Z,0
2016-11-09T01:32:24.930Z,0
2016-11-09T01:33:24.993Z,0
2016-11-09T01:34:25.036Z,0
2016-11-09T01:35:25.099Z,0
2016-11-09T01:36:25.138Z,0
2016-11-09T01:37:25.244Z,0
2016-11-09T01:38:25.292Z,0
2016-11-09T01:39:25.305Z,0
2016-11-09T01:40:25.375Z,0
2016-11-09T01:41:25.453Z,0
2016-11-09T01:42:25.496Z,0
2016-11-09T01:43:25.542Z,0
2016-11-09T01:44:25.597Z,0
2016-11-09T01:45:25.635Z,0
2016-11-09T01:46:25.729Z,0
2016-11-09T01:47:25.767Z,0
2016-11-09T01:48:25.822Z,0
2016-11-09T01:49:25.871Z,0
2016-11-09T01:50:25.929Z,0
2016-11-09T01:51:26.298Z,0
2016-11-09T01:52:26.047Z,0
2016-11-09T01:53:26.113Z,0
2016-11-09T01:54:26.137Z,0
2016-11-09T01:55:26.233Z,0
2016-11-09T01:56:26.258Z,0
2016-11-09T01:57:26.321Z,0
2016-11-09T01:58:26.367Z,0
2016-11-09T01:59:26.409Z,0
2016-11-09T02:00:26.473Z,0
2016-11-09T02:01:26.536Z,0
2016-11-09T02:02:26.586Z,0
2016-11-09T02:03:26.644Z,0
2016-11-09T02:04:26.684Z,0
2016-11-09T02:05:26.746Z,0
2016-11-09T02:06:26.821Z,0
2016-11-09T02:07:26.865Z,0
2016-11-09T02:08:26.930Z,0
2016-11-09T02:09:26.998Z,0
2016-11-09T02:10:27.035Z,0
2016-11-09T02:11:27.093Z,0
2016-11-09T02:12:27.141Z,0
2016-11-09T02:13:27.216Z,0
2016-11-09T02:14:27.290Z,0
2016-11-09T02:15:27.361Z,0
2016-11-09T02:16:27.384Z,0
2016-11-09T02:17:27.410Z,0
2016-11-09T02:18:27.458Z,0
2016-11-09T02:19:27.545Z,0
2016-11-09T02:20:27.583Z,0
2016-11-09T02:21:27.648Z,0
2016-11-09T02:22:27.713Z,0
2016-11-09T02:23:27.736Z,0
2016-11-09T02:24:27.806Z,0
2016-11-09T02:25:27.844Z,0
2016-11-09T02:26:27.928Z,0
2016-11-09T02:27:27.956Z,0
2016-11-09T02:28:28.039Z,0
2016-11-09T02:29:28.089Z,0
2016-11-09T02:30:28.139Z,0
2016-11-09T02:31:28.190Z,0
2016-11-09T02:32:28.255Z,0
2016-11-09T02:33:28.336Z,0
2016-11-09T02:34:28.377Z,0
2016-11-09T02:35:28.437Z,0
2016-11-09T02:36:28.464Z,0
2016-11-09T02:37:28.540Z,0
2016-11-09T02:38:28.582Z,0
2016-11-09T02:39:28.624Z,0
2016-11-09T02:40:28.684Z,0
2016-11-09T02:41:28.759Z,0
2016-11-09T02:42:28.811Z,0
2016-11-09T02:43:28.854Z,0
2016-11-09T02:44:28.933Z,0
2016-11-09T02:45:28.968Z,0
2016-11-09T02:46:29.015Z,0
2016-11-09T02:47:29.079Z,0
2016-11-09T02:48:29.133Z,0
2016-11-09T02:49:29.197Z,0
2016-11-09T02:50:29.265Z,0
2016-11-09T02:51:29.306Z,0
2016-11-09T02:52:29.362Z,0
2016-11-09T02:53:29.409Z,0
2016-11-09T02:54:29.484Z,0
2016-11-09T02:55:29.508Z,0
2016-11-09T02:56:29.570Z,0
2016-11-09T02:57:29.637Z,0
2016-11-09T02:58:29.676Z,0
2016-11-09T02:59:29.747Z,0
2016-11-09T03:00:29.795Z,0
2016-11-09T03:01:29.850Z,0
2016-11-09T03:02:29.918Z,0
2016-11-09T03:03:29.964Z,0
2016-11-09T03:04:30.040Z,0
2016-11-09T03:05:30.098Z,0
2016-11-09T03:06:30.133Z,0
2016-11-09T03:07:30.176Z,0
2016-11-09T03:08:30.229Z,0
2016-11-09T03:09:30.294Z,0
2016-11-09T03:10:30.348Z,0
2016-11-09T03:11:30.414Z,0
2016-11-09T03:12:30.473Z,0
2016-11-09T03:13:30.507Z,0
2016-11-09T03:14:30.563Z,0
2016-11-09T03:15:30.639Z,0
2016-11-09T03:16:30.678Z,0
2016-11-09T03:17:30.736Z,0
2016-11-09T03:18:30.811Z,0
2016-11-09T03:19:30.863Z,0
2016-11-09T03:20:30.888Z,0
2016-11-09T03:21:30.942Z,0
2016-11-09T03:22:31.021Z,0
2016-11-09T03:23:31.051Z,0
2016-11-09T03:24:31.132Z,0
2016-11-09T03:25:31.196Z,0
2016-11-09T03:26:31.228Z,0
2016-11-09T03:27:31.296Z,0
2016-11-09T03:28:31.365Z,0
2016-11-09T03:29:31.396Z,0
2016-11-09T03:30:31.458Z,0
2016-11-09T03:31:31.492Z,0
2016-11-09T03:32:31.561Z,0
2016-11-09T03:33:31.637Z,0
2016-11-09T03:34:31.676Z,0
2016-11-09T03:35:31.739Z,0
2016-11-09T03:36:31.798Z,0
2016-11-09T03:37:31.835Z,0
2016-11-09T03:38:31.885Z,0
2016-11-09T03:39:31.961Z,0
2016-11-09T03:40:32.002Z,0
2016-11-09T03:41:32.059Z,0
2016-11-09T03:42:32.118Z,0
2016-11-09T03:43:32.152Z,0
2016-11-09T03:44:32.211Z,0
2016-11-09T03:45:32.283Z,0
2016-11-09T03:46:32.340Z,0
2016-11-09T03:47:32.378Z,0
2016-11-09T03:48:32.452Z,0
2016-11-09T03:49:32.497Z,0
2016-11-09T03:50:32.544Z,0
2016-11-09T03:51:32.917Z,0
2016-11-09T03:52:32.661Z,0
2016-11-09T03:53:32.739Z,0
2016-11-09T03:54:32.782Z,0
2016-11-09T03:55:32.840Z,0
2016-11-09T03:56:32.897Z,0
2016-11-09T03:57:32.949Z,0
2016-11-09T03:58:33.002Z,0
2016-11-09T03:59:33.071Z,0
2016-11-09T04:00:33.086Z,0
2016-11-09T04:01:33.178Z,0
2016-11-09T04:02:33.201Z,0
2016-11-09T04:03:33.274Z,0
2016-11-09T04:04:33.335Z,0
2016-11-09T04:05:33.376Z,0
2016-11-09T04:06:33.465Z,0
2016-11-09T04:07:33.483Z,0
2016-11-09T04:08:33.531Z,0
2016-11-09T04:09:33.605Z,0
2016-11-09T04:10:33.652Z,0
2016-11-09T04:11:33.734Z,0
2016-11-09T04:12:33.771Z,0
2016-11-09T04:13:33.823Z,0
2016-11-09T04:14:33.872Z,0
2016-11-09T04:15:33.929Z,0
2016-11-09T04:16:33.993Z,0
2016-11-09T04:17:34.050Z,0
2016-11-09T04:18:34.091Z,0
2016-11-09T04:19:34.140Z,0
2016-11-09T04:20:34.195Z,0
2016-11-09T04:21:34.284Z,0
2016-11-09T04:22:34.307Z,0
2016-11-09T04:23:34.362Z,0
2016-11-09T04:24:34.417Z,0
2016-11-09T04:25:34.470Z,0
2016-11-09T04:26:34.872Z,0
2016-11-09T04:27:34.590Z,0
2016-11-09T04:28:34.644Z,0
2016-11-09T04:29:34.706Z,0
2016-11-09T04:30:34.769Z,0
2016-11-09T04:31:34.806Z,0
2016-11-09T04:32:34.888Z,0
2016-11-09T04:33:34.926Z,0
2016-11-09T04:34:34.978Z,0
2016-11-09T04:35:35.037Z,0
2016-11-09T04:36:35.079Z,0
2016-11-09T04:37:35.162Z,0
2016-11-09T04:38:35.195Z,0
2016-11-09T04:39:35.276Z,0
2016-11-09T04:40:35.304Z,0
2016-11-09T04:41:35.377Z,0
2016-11-09T04:42:35.740Z,0
2016-11-09T04:43:35.473Z,0
2016-11-09T04:44:35.538Z,0
2016-11-09T04:45:35.581Z,0
2016-11-09T04:46:35.630Z,0
2016-11-09T04:47:35.684Z,0
2016-11-09T04:48:35.751Z,0
2016-11-09T04:49:35.818Z,0
2016-11-09T04:50:35.864Z,0
2016-11-09T04:51:35.923Z,0
2016-11-09T04:52:35.982Z,0
2016-11-09T04:53:36.011Z,0
2016-11-09T04:54:36.086Z,0
2016-11-09T04:55:36.137Z,0
2016-11-09T04:56:36.184Z,0
2016-11-09T04:57:36.236Z,0
2016-11-09T04:58:36.316Z,0
2016-11-09T04:59:36.371Z,0
2016-11-09T05:00:36.408Z,0
2016-11-09T05:01:36.472Z,0
2016-11-09T05:02:36.523Z,0
2016-11-09T05:03:36.590Z,0
2016-11-09T05:04:36.683Z,0
2016-11-09T05:05:36.700Z,0
2016-11-09T05:06:36.730Z,0
2016-11-09T05:07:36.798Z,0
2016-11-09T05:08:36.868Z,0
2016-11-09T05:09:36.912Z,0
2016-11-09T05:10:36.953Z,0
2016-11-09T05:11:37.023Z,0
2016-11-09T05:12:37.076Z,0
2016-11-09T05:13:37.126Z,0
2016-11-09T05:14:37.170Z,0
2016-11-09T05:15:37.262Z,0
2016-11-09T05:16:37.322Z,0
2016-11-09T05:17:37.371Z,0
2016-11-09T05:18:37.420Z,0
2016-11-09T05:19:37.480Z,0
2016-11-09T05:20:37.519Z,0
2016-11-09T05:21:37.568Z,0
2016-11-09T05:22:37.641Z,0
2016-11-09T05:23:37.698Z,0
2016-11-09T05:24:37.751Z,0
2016-11-09T05:25:37.811Z,0
2016-11-09T05:26:37.864Z,0
2016-11-09T05:27:37.904Z,0
2016-11-09T05:28:37.960Z,0
2016-11-09T05:29:38.036Z,0
2016-11-09T05:30:38.063Z,0
2016-11-09T05:31:38.131Z,0
2016-11-09T05:32:38.179Z,0
2016-11-09T05:33:38.221Z,0
2016-11-09T05:34:38.288Z,0
2016-11-09T05:35:38.341Z,0
2016-11-09T05:36:38.385Z,0
2016-11-09T05:37:38.439Z,0
2016-11-09T05:38:38.493Z,0
2016-11-09T05:39:38.559Z,0
2016-11-09T05:40:38.619Z,0
2016-11-09T05:41:38.673Z,0
2016-11-09T05:42:38.736Z,0
2016-11-09T05:43:38.797Z,0
2016-11-09T05:44:38.833Z,0
2016-11-09T05:45:38.890Z,0
2016-11-09T05:46:38.973Z,0
2016-11-09T05:47:39.008Z,0
2016-11-09T05:48:39.061Z,0
2016-11-09T05:49:39.117Z,4
2016-11-09T05:50:39.162Z,4
2016-11-09T05:51:39.219Z,4
2016-11-09T05:52:39.296Z,0
2016-11-09T05:53:39.346Z,4
2016-11-09T05:54:39.387Z,4
2016-11-09T05:55:39.450Z,8
2016-11-09T05:56:39.511Z,4
2016-11-09T05:57:39.565Z,8
2016-11-09T05:58:39.623Z,8
2016-11-09T05:59:39.686Z,12
2016-11-09T06:00:39.727Z,8
2016-11-09T06:01:39.790Z,12
2016-11-09T06:02:39.844Z,12
2016-11-09T06:03:39.915Z,16
2016-11-09T06:04:39.946Z,16
2016-11-09T06:05:40.002Z,20
2016-11-09T06:06:40.075Z,24
2016-11-09T06:07:40.136Z,24
2016-11-09T06:08:40.374Z,28
2016-11-09T06:09:40.239Z,28
2016-11-09T06:10:40.290Z,36
2016-11-09T06:11:40.357Z,36
2016-11-09T06:12:40.391Z,40
2016-11-09T06:13:40.462Z,48
2016-11-09T06:14:40.498Z,60
2016-11-09T06:15:40.565Z,76
2016-11-09T06:16:40.611Z,84
2016-11-09T06:17:40.666Z,92
2016-11-09T06:18:40.740Z,104
2016-11-09T06:19:40.787Z,120
2016-11-09T06:20:40.843Z,124
2016-11-09T06:21:40.884Z,136
2016-11-09T06:22:40.952Z,148
2016-11-09T06:23:41.002Z,164
2016-11-09T06:24:41.049Z,180
2016-11-09T06:25:41.106Z,196
2016-11-09T06:26:41.167Z,208
2016-11-09T06:27:41.229Z,220
2016-11-09T06:28:41.276Z,236
2016-11-09T06:29:41.338Z,256
2016-11-09T06:30:41.392Z,268
2016-11-09T06:31:41.470Z,276
2016-11-09T06:32:41.501Z,292
2016-11-09T06:33:41.769Z,308
2016-11-09T06:34:41.629Z,328
2016-11-09T06:35:41.867Z,332
2016-11-09T06:36:41.741Z,340
2016-11-09T06:37:41.766Z,352
2016-11-09T06:38:41.835Z,376
2016-11-09T06:39:41.891Z,400
2016-11-09T06:40:41.949Z,488
2016-11-09T06:41:42.017Z,428
2016-11-09T06:42:42.063Z,460
2016-11-09T06:43:42.120Z,472
2016-11-09T06:44:42.167Z,504
2016-11-09T06:45:42.232Z,508
2016-11-09T06:46:42.285Z,520
2016-11-09T06:47:42.331Z,544
2016-11-09T06:48:42.390Z,552
2016-11-09T06:49:42.437Z,568
2016-11-09T06:50:42.502Z,588
2016-11-09T06:51:42.565Z,600
2016-11-09T06:52:42.619Z,608
2016-11-09T06:53:42.679Z,612
2016-11-09T06:54:42.778Z,628
2016-11-09T06:55:42.789Z,644
2016-11-09T06:56:42.827Z,656
2016-11-09T06:57:42.899Z,668
2016-11-09T06:58:42.933Z,676
2016-11-09T06:59:43.214Z,676
2016-11-09T07:00:43.265Z,684
2016-11-09T07:01:43.325Z,692
2016-11-09T07:02:43.470Z,696
2016-11-09T07:03:43.246Z,700
2016-11-09T07:04:43.290Z,700
2016-11-09T07:05:43.336Z,688
2016-11-09T07:06:43.410Z,708
2016-11-09T07:07:43.466Z,740
2016-11-09T07:08:43.511Z,760
2016-11-09T07:09:43.572Z,748
2016-11-09T07:10:43.617Z,728
2016-11-09T07:11:43.994Z,720
2016-11-09T07:12:43.735Z,720
2016-11-09T07:13:44.086Z,752
2016-11-09T07:14:43.839Z,720
2016-11-09T07:15:43.892Z,776
2016-11-09T07:16:43.957Z,756
2016-11-09T07:17:44.016Z,784
2016-11-09T07:18:44.056Z,808
2016-11-09T07:19:44.135Z,820
2016-11-09T07:20:44.177Z,844
2016-11-09T07:21:44.215Z,840
2016-11-09T07:22:44.284Z,856
2016-11-09T07:23:44.343Z,864
2016-11-09T07:24:44.414Z,868
2016-11-09T07:25:44.633Z,884
2016-11-09T07:26:44.728Z,900
2016-11-09T07:27:44.546Z,900
2016-11-09T07:28:44.648Z,948
2016-11-09T07:29:44.690Z,920
2016-11-09T07:30:44.740Z,996
2016-11-09T07:31:44.792Z,936
2016-11-09T07:32:44.868Z,968
2016-11-09T07:33:44.912Z,956
2016-11-09T07:34:44.964Z,972
2016-11-09T07:35:45.010Z,1008
2016-11-09T07:36:45.054Z,1016
2016-11-09T07:37:45.136Z,1088
2016-11-09T07:38:45.195Z,1112
2016-11-09T07:39:45.243Z,1072
2016-11-09T07:40:45.290Z,1072
2016-11-09T07:41:45.366Z,1144
2016-11-09T07:42:45.441Z,1116
2016-11-09T07:43:45.447Z,1084
2016-11-09T07:44:45.521Z,1096
2016-11-09T07:45:45.579Z,1056
2016-11-09T07:46:45.641Z,1048
2016-11-09T07:47:45.699Z,1052
2016-11-09T07:48:45.732Z,1140
2016-11-09T07:49:45.798Z,1096
2016-11-09T07:50:45.857Z,1144
2016-11-09T07:51:46.098Z,1116
2016-11-09T07:52:45.986Z,1128
2016-11-09T07:53:46.039Z,1152
2016-11-09T07:54:46.083Z,1224
2016-11-09T07:55:46.180Z,1192
2016-11-09T07:56:46.187Z,1228
2016-11-09T07:57:46.256Z,1248
2016-11-09T07:58:46.324Z,1352
2016-11-09T07:59:46.364Z,1280
2016-11-09T08:00:46.414Z,1324
2016-11-09T08:01:46.509Z,1332
2016-11-09T08:02:46.534Z,1416
2016-11-09T08:03:46.584Z,1400
2016-11-09T08:04:46.633Z,1480
2016-11-09T08:05:46.689Z,1568
2016-11-09T08:06:46.753Z,1536
2016-11-09T08:07:46.813Z,1536
2016-11-09T08:08:46.854Z,1564
2016-11-09T08:09:46.924Z,1576
2016-11-09T08:10:47.350Z,1464
2016-11-09T08:11:47.050Z,1632
2016-11-09T08:12:47.097Z,1628
2016-11-09T08:13:47.164Z,1596
2016-11-09T08:14:47.184Z,1656
2016-11-09T08:15:47.279Z,1812
2016-11-09T08:16:47.326Z,2080
2016-11-09T08:17:47.554Z,2336
2016-11-09T08:18:47.644Z,2616
2016-11-09T08:19:47.494Z,2488
2016-11-09T08:20:47.526Z,2568
2016-11-09T08:21:47.604Z,2664
2016-11-09T08:22:47.646Z,1916
2016-11-09T08:23:47.726Z,2588
2016-11-09T08:24:47.747Z,2224
2016-11-09T08:25:47.822Z,2600
2016-11-09T08:26:47.893Z,2604
2016-11-09T08:27:47.932Z,2628
2016-11-09T08:28:47.991Z,2624
2016-11-09T08:29:48.041Z,2448
2016-11-09T08:30:48.105Z,2392
2016-11-09T08:31:48.141Z,2368
2016-11-09T08:32:48.219Z,2404
2016-11-09T08:33:48.273Z,2516
2016-11-09T08:34:48.316Z,2640
2016-11-09T08:35:48.395Z,2524
2016-11-09T08:36:48.443Z,2480
2016-11-09T08:37:48.505Z,2468
2016-11-09T08:38:48.557Z,2412
2016-11-09T08:39:48.593Z,2420
2016-11-09T08:40:48.667Z,2364
2016-11-09T08:41:48.743Z,2356
2016-11-09T08:42:48.765Z,2500
2016-11-09T08:43:48.823Z,2276
2016-11-09T08:44:48.910Z,2268
2016-11-09T08:45:49.280Z,2220
2016-11-09T08:46:49.006Z,2268
2016-11-09T08:47:49.065Z,2268
2016-11-09T08:48:49.115Z,2396
2016-11-09T08:49:49.158Z,2332
2016-11-09T08:50:49.233Z,2296
2016-11-09T08:51:49.288Z,2428
2016-11-09T08:52:49.341Z,2356
2016-11-09T08:53:49.415Z,2576
2016-11-09T08:54:49.455Z,2608
2016-11-09T08:55:49.508Z,2516
2016-11-09T08:56:49.631Z,2608
2016-11-09T08:57:49.640Z,2836
2016-11-09T08:58:49.664Z,2976
2016-11-09T08:59:49.756Z,3168
2016-11-09T09:00:49.801Z,3236
2016-11-09T09:01:49.846Z,3268
2016-11-09T09:02:49.910Z,3276
2016-11-09T09:03:49.976Z,3364
2016-11-09T09:04:50.014Z,3548
2016-11-09T09:05:50.108Z,3564
2016-11-09T09:06:50.130Z,3584
2016-11-09T09:07:50.208Z,3608
2016-11-09T09:08:50.257Z,3700
2016-11-09T09:09:50.286Z,3628
2016-11-09T09:10:50.370Z,3692
2016-11-09T09:11:50.417Z,3628
2016-11-09T09:12:50.486Z,3676
2016-11-09T09:13:50.508Z,3648
2016-11-09T09:14:50.586Z,3692
2016-11-09T09:15:50.622Z,3608
2016-11-09T09:16:50.700Z,3564
2016-11-09T09:17:51.066Z,3592
2016-11-09T09:18:50.816Z,3588
2016-11-09T09:19:50.853Z,3624
2016-11-09T09:20:50.931Z,3696
2016-11-09T09:21:50.985Z,3672
2016-11-09T09:22:51.031Z,3764
2016-11-09T09:23:51.074Z,3800
2016-11-09T09:24:51.139Z,3700
2016-11-09T09:25:51.189Z,3812
2016-11-09T09:26:51.249Z,3916
2016-11-09T09:27:51.312Z,3924
2016-11-09T09:28:51.391Z,3772
2016-11-09T09:29:51.441Z,3820
2016-11-09T09:30:51.489Z,3884
2016-11-09T09:31:51.548Z,3944
2016-11-09T09:32:51.618Z,3860
2016-11-09T09:33:51.664Z,3836
2016-11-09T09:34:51.727Z,3896
2016-11-09T09:35:51.786Z,4000
2016-11-09T09:36:51.840Z,4180
2016-11-09T09:37:51.870Z,4384
2016-11-09T09:38:51.943Z,4436
2016-11-09T09:39:51.994Z,4556
2016-11-09T09:40:52.051Z,4580
2016-11-09T09:41:52.115Z,4656
2016-11-09T09:42:52.173Z,4600
2016-11-09T09:43:52.235Z,4456
2016-11-09T09:44:52.275Z,4576
2016-11-09T09:45:52.665Z,4656
2016-11-09T09:46:52.382Z,4852
2016-11-09T09:47:52.447Z,4840
2016-11-09T09:48:52.485Z,4764
2016-11-09T09:49:52.546Z,4732
2016-11-09T09:50:52.607Z,4748
2016-11-09T09:51:52.959Z,4528
2016-11-09T09:52:52.721Z,4440
2016-11-09T09:53:52.773Z,4268
2016-11-09T09:54:52.866Z,4188
2016-11-09T09:55:52.911Z,4068
2016-11-09T09:56:52.956Z,3916
2016-11-09T09:57:53.016Z,3784
2016-11-09T09:58:53.090Z,3352
2016-11-09T09:59:53.405Z,3180
2016-11-09T10:00:53.203Z,2964
2016-11-09T10:01:53.247Z,2896
2016-11-09T10:02:53.320Z,2808
2016-11-09T10:03:53.349Z,2828
2016-11-09T10:04:53.415Z,2816
2016-11-09T10:05:53.464Z,2708
2016-11-09T10:06:53.520Z,3196
2016-11-09T10:07:53.599Z,3404
2016-11-09T10:08:53.645Z,3736
2016-11-09T10:09:53.999Z,3988
2016-11-09T10:10:53.983Z,3852
2016-11-09T10:11:53.815Z,3536
2016-11-09T10:12:53.880Z,3568
2016-11-09T10:13:53.944Z,3268
2016-11-09T10:14:53.987Z,3464
2016-11-09T10:15:54.043Z,3244
2016-11-09T10:16:54.085Z,3456
2016-11-09T10:17:54.161Z,3724
2016-11-09T10:18:54.207Z,4048
2016-11-09T10:19:54.272Z,4156
2016-11-09T10:20:54.339Z,4504
2016-11-09T10:21:54.397Z,4888
2016-11-09T10:22:54.456Z,4836
2016-11-09T10:23:54.526Z,5212
2016-11-09T10:24:54.540Z,5536
2016-11-09T10:25:54.605Z,5688
2016-11-09T10:26:54.646Z,5564
2016-11-09T10:27:54.731Z,5516
2016-11-09T10:28:54.780Z,5140
2016-11-09T10:29:54.845Z,5052
2016-11-09T10:30:54.895Z,5508
2016-11-09T10:31:54.945Z,5524
2016-11-09T10:32:55.004Z,5456
2016-11-09T10:33:55.080Z,5568
2016-11-09T10:34:55.111Z,5216
2016-11-09T10:35:55.186Z,4840
2016-11-09T10:36:55.245Z,4632
2016-11-09T10:37:55.295Z,4532
2016-11-09T10:38:55.346Z,3856
2016-11-09T10:39:55.423Z,3964
2016-11-09T10:40:55.458Z,3992
2016-11-09T10:41:55.513Z,3744
2016-11-09T10:42:55.578Z,3084
2016-11-09T10:43:55.626Z,2724
2016-11-09T10:44:55.697Z,2720
2016-11-09T10:45:55.756Z,2868
2016-11-09T10:46:55.819Z,3128
2016-11-09T10:47:55.875Z,3228
2016-11-09T10:48:55.928Z,3668
2016-11-09T10:49:55.990Z,3800
2016-11-09T10:50:56.028Z,3776
2016-11-09T10:51:56.089Z,3708
2016-11-09T10:52:56.153Z,3848
2016-11-09T10:53:56.222Z,3980
2016-11-09T10:54:56.272Z,4288
2016-11-09T10:55:56.328Z,4856
2016-11-09T10:56:56.355Z,4680
2016-11-09T10:57:56.423Z,4616
2016-11-09T10:58:56.494Z,4796
2016-11-09T10:59:56.567Z,4984
2016-11-09T11:00:56.598Z,5060
2016-11-09T11:01:56.671Z,4508
2016-11-09T11:02:56.699Z,5776
2016-11-09T11:03:56.771Z,5604
2016-11-09T11:04:56.836Z,5184
2016-11-09T11:05:56.876Z,5508
2016-11-09T11:06:56.941Z,5892
2016-11-09T11:07:57.028Z,6168
2016-11-09T11:08:57.068Z,5932
2016-11-09T11:09:57.094Z,5972
2016-11-09T11:10:57.160Z,5916
2016-11-09T11:11:57.204Z,6208
2016-11-09T11:12:57.269Z,6360
2016-11-09T11:13:57.351Z,6432
2016-11-09T11:14:57.393Z,6592
2016-11-09T11:15:57.469Z,6376
2016-11-09T11:16:57.518Z,6616
2016-11-09T11:17:57.550Z,6848
2016-11-09T11:18:57.608Z,7084
2016-11-09T11:19:57.675Z,7024
2016-11-09T11:20:57.734Z,6128
2016-11-09T11:21:57.802Z,5804
2016-11-09T11:22:57.867Z,6480
2016-11-09T11:23:57.886Z,5784
2016-11-09T11:24:57.961Z,5868
2016-11-09T11:25:58.035Z,5892
2016-11-09T11:26:58.069Z,6408
2016-11-09T11:27:58.125Z,6192
2016-11-09T11:28:58.186Z,6472
2016-11-09T11:29:58.260Z,6572
2016-11-09T11:30:58.297Z,5980
2016-11-09T11:31:58.343Z,5612
2016-11-09T11:32:58.405Z,5020
2016-11-09T11:33:58.464Z,4668
2016-11-09T11:34:58.612Z,5332
2016-11-09T11:35:58.583Z,5624
2016-11-09T11:36:58.656Z,5116
2016-11-09T11:37:58.691Z,4608
2016-11-09T11:38:58.767Z,4492
2016-11-09T11:39:58.817Z,4692
2016-11-09T11:40:58.859Z,4536
2016-11-09T11:41:58.930Z,3972
2016-11-09T11:42:58.958Z,3784
2016-11-09T11:43:59.054Z,3748
2016-11-09T11:44:59.310Z,3420
2016-11-09T11:45:59.160Z,3460
2016-11-09T11:46:59.187Z,3684
2016-11-09T11:47:59.253Z,4132
2016-11-09T11:48:59.322Z,3944
2016-11-09T11:49:59.373Z,3840
2016-11-09T11:50:59.433Z,4376
2016-11-09T11:51:59.475Z,4192
2016-11-09T11:52:59.552Z,4020
2016-11-09T11:53:59.600Z,4508
2016-11-09T11:54:59.656Z,4664
2016-11-09T11:55:59.698Z,5424
2016-11-09T11:56:59.749Z,5352
2016-11-09T11:57:59.803Z,5152
2016-11-09T11:58:59.882Z,5352
2016-11-09T11:59:59.918Z,5088
2016-11-09T12:00:59.994Z,5372
2016-11-09T12:02:00.055Z,5464
2016-11-09T12:03:00.096Z,5656
2016-11-09T12:04:00.165Z,4792
2016-11-09T12:05:00.215Z,4256
2016-11-09T12:06:00.257Z,4056
2016-11-09T12:07:00.331Z,4012
2016-11-09T12:08:00.406Z,3908
2016-11-09T12:09:00.486Z,3808
2016-11-09T12:10:00.508Z,3792
2016-11-09T12:11:00.559Z,3796
2016-11-09T12:12:00.598Z,4000
2016-11-09T12:13:00.664Z,4056
2016-11-09T12:14:00.725Z,3924
2016-11-09T12:15:00.779Z,3508
2016-11-09T12:16:00.846Z,3292
2016-11-09T12:17:00.905Z,3312
2016-11-09T12:18:00.972Z,3068
2016-11-09T12:19:01.007Z,2892
2016-11-09T12:20:01.066Z,2740
2016-11-09T12:21:01.144Z,2748
2016-11-09T12:22:01.592Z,2964
2016-11-09T12:23:01.239Z,3060
2016-11-09T12:24:01.291Z,2972
2016-11-09T12:25:01.366Z,3028
2016-11-09T12:26:01.432Z,3088
2016-11-09T12:27:01.504Z,2828
2016-11-09T12:28:01.533Z,2636
2016-11-09T12:29:01.577Z,2648
2016-11-09T12:30:01.650Z,2688
2016-11-09T12:31:01.692Z,2956
2016-11-09T12:32:01.771Z,2900
2016-11-09T12:33:01.819Z,2872
2016-11-09T12:34:01.886Z,3008
2016-11-09T12:35:01.924Z,3032
2016-11-09T12:36:02.104Z,3036
2016-11-09T12:37:02.073Z,2948
2016-11-09T12:38:02.116Z,2864
2016-11-09T12:39:02.188Z,2976
2016-11-09T12:40:02.214Z,3108
2016-11-09T12:41:02.305Z,3044
2016-11-09T12:42:02.341Z,2916
2016-11-09T12:43:02.425Z,3176
2016-11-09T12:44:02.469Z,3576
2016-11-09T12:45:02.815Z,3596
2016-11-09T12:46:02.555Z,4272
2016-11-09T12:47:02.651Z,4624
2016-11-09T12:48:02.704Z,4492
2016-11-09T12:49:02.774Z,4908
2016-11-09T12:50:03.193Z,5572
2016-11-09T12:51:02.872Z,5820
2016-11-09T12:52:02.908Z,5496
2016-11-09T12:53:02.956Z,4952
2016-11-09T12:54:03.020Z,4436
2016-11-09T12:55:03.095Z,4556
2016-11-09T12:56:03.143Z,4272
2016-11-09T12:57:03.197Z,3764
2016-11-09T12:58:03.261Z,3932
2016-11-09T12:59:03.316Z,3856
2016-11-09T13:00:03.361Z,3612
2016-11-09T13:01:03.435Z,3508
2016-11-09T13:02:03.497Z,3232
2016-11-09T13:03:03.535Z,3016
2016-11-09T13:04:03.613Z,2604
2016-11-09T13:05:03.650Z,2312
2016-11-09T13:06:03.715Z,1764
2016-11-09T13:07:03.779Z,1420
2016-11-09T13:08:03.834Z,1292
2016-11-09T13:09:03.893Z,1272
2016-11-09T13:10:03.950Z,1384
2016-11-09T13:11:04.024Z,1628
2016-11-09T13:12:04.065Z,2052
2016-11-09T13:13:04.127Z,2368
2016-11-09T13:14:04.172Z,2508
2016-11-09T13:15:04.590Z,2460
2016-11-09T13:16:04.292Z,2556
2016-11-09T13:17:04.363Z,2624
2016-11-09T13:18:04.420Z,2520
2016-11-09T13:19:04.463Z,2336
2016-11-09T13:20:04.513Z,2080
2016-11-09T13:21:04.567Z,1988
2016-11-09T13:22:04.641Z,1880
2016-11-09T13:23:04.707Z,1688
2016-11-09T13:24:04.757Z,1392
2016-11-09T13:25:04.820Z,1196
2016-11-09T13:26:04.864Z,1148
2016-11-09T13:27:04.969Z,1020
2016-11-09T13:28:04.993Z,916
2016-11-09T13:29:05.029Z,876
2016-11-09T13:30:05.091Z,872
2016-11-09T13:31:05.144Z,900
2016-11-09T13:32:05.220Z,900
2016-11-09T13:33:05.593Z,864
2016-11-09T13:34:05.324Z,848
2016-11-09T13:35:05.359Z,912
2016-11-09T13:36:05.433Z,912
2016-11-09T13:37:05.572Z,932
2016-11-09T13:38:05.525Z,920
2016-11-09T13:39:05.589Z,880
2016-11-09T13:40:05.669Z,848
2016-11-09T13:41:05.730Z,820
2016-11-09T13:42:05.771Z,820
2016-11-09T13:43:05.835Z,808
2016-11-09T13:44:05.881Z,800
2016-11-09T13:45:05.958Z,828
2016-11-09T13:46:05.995Z,868
2016-11-09T13:47:06.053Z,884
2016-11-09T13:48:06.118Z,868
2016-11-09T13:49:06.170Z,944
2016-11-09T13:50:06.210Z,1024
2016-11-09T13:51:06.278Z,948
2016-11-09T13:52:06.328Z,808
2016-11-09T13:53:06.398Z,752
2016-11-09T13:54:06.435Z,732
2016-11-09T13:55:06.522Z,760
2016-11-09T13:56:06.572Z,820
2016-11-09T13:57:06.603Z,728
2016-11-09T13:58:06.693Z,744
2016-11-09T13:59:06.727Z,816
2016-11-09T14:00:06.807Z,1020